sensor_id;sensor_type;location;lat;lon;timestamp;pressure;altitude;pressure_sealevel;temperature;humidity
77877;BME280;67251;50.844;7.978;2023-05-21T00:02:14;98838.22;;;8.98;93.16
77877;BME280;67251;50.844;7.978;2023-05-21T00:04:42;98833.66;;;8.92;93.31
77877;BME280;67251;50.844;7.978;2023-05-21T00:07:08;98836.69;;;8.89;93.41
77877;BME280;67251;50.844;7.978;2023-05-21T00:09:35;98828.25;;;8.85;93.67
77877;BME280;67251;50.844;7.978;2023-05-21T00:12:03;98822.72;;;8.87;93.51
77877;BME280;67251;50.844;7.978;2023-05-21T00:14:28;98819.84;;;8.88;93.64
77877;BME280;67251;50.844;7.978;2023-05-21T00:16:54;98818.22;;;8.87;93.85
77877;BME280;67251;50.844;7.978;2023-05-21T00:19:19;98815.91;;;8.84;94.18
77877;BME280;67251;50.844;7.978;2023-05-21T00:21:44;98814.09;;;8.85;94.43
77877;BME280;67251;50.844;7.978;2023-05-21T00:24:10;98815.66;;;8.79;94.46
77877;BME280;67251;50.844;7.978;2023-05-21T00:26:36;98812.94;;;8.73;94.63
77877;BME280;67251;50.844;7.978;2023-05-21T00:29:02;98804.03;;;8.65;94.88
77877;BME280;67251;50.844;7.978;2023-05-21T00:31:27;98803.78;;;8.60;95.00
77877;BME280;67251;50.844;7.978;2023-05-21T00:33:53;98798.38;;;8.54;95.39
77877;BME280;67251;50.844;7.978;2023-05-21T00:36:18;98789.56;;;8.53;95.39
77877;BME280;67251;50.844;7.978;2023-05-21T00:38:48;98797.81;;;8.58;95.52
77877;BME280;67251;50.844;7.978;2023-05-21T00:41:14;98783.22;;;8.54;95.69
77877;BME280;67251;50.844;7.978;2023-05-21T00:43:39;98787.34;;;8.57;96.09
77877;BME280;67251;50.844;7.978;2023-05-21T00:46:13;98782.59;;;8.52;96.38
77877;BME280;67251;50.844;7.978;2023-05-21T00:48:41;98783.78;;;8.50;96.58
77877;BME280;67251;50.844;7.978;2023-05-21T00:51:06;98778.19;;;8.44;96.40
77877;BME280;67251;50.844;7.978;2023-05-21T00:53:32;98778.75;;;8.40;96.63
77877;BME280;67251;50.844;7.978;2023-05-21T00:56:01;98780.66;;;8.31;96.80
77877;BME280;67251;50.844;7.978;2023-05-21T00:58:27;98778.19;;;8.30;97.31
77877;BME280;67251;50.844;7.978;2023-05-21T01:00:53;98774.16;;;8.34;97.76
77877;BME280;67251;50.844;7.978;2023-05-21T01:03:22;98773.13;;;8.35;97.57
77877;BME280;67251;50.844;7.978;2023-05-21T01:05:51;98774.16;;;8.34;97.55
77877;BME280;67251;50.844;7.978;2023-05-21T01:08:21;98776.97;;;8.32;97.38
77877;BME280;67251;50.844;7.978;2023-05-21T01:10:47;98773.22;;;8.27;97.53
77877;BME280;67251;50.844;7.978;2023-05-21T01:13:13;98777.28;;;8.23;97.59
77877;BME280;67251;50.844;7.978;2023-05-21T01:15:42;98770.50;;;8.20;97.63
77877;BME280;67251;50.844;7.978;2023-05-21T01:18:07;98771.06;;;8.15;97.63
77877;BME280;67251;50.844;7.978;2023-05-21T01:20:33;98766.09;;;8.12;97.93
77877;BME280;67251;50.844;7.978;2023-05-21T01:22:59;98768.31;;;8.09;97.65
77877;BME280;67251;50.844;7.978;2023-05-21T01:25:25;98772.19;;;8.06;97.82
77877;BME280;67251;50.844;7.978;2023-05-21T01:27:50;98767.06;;;8.05;97.84
77877;BME280;67251;50.844;7.978;2023-05-21T01:30:17;98765.22;;;8.05;97.90
77877;BME280;67251;50.844;7.978;2023-05-21T01:35:25;98764.81;;;8.08;97.68
77877;BME280;67251;50.844;7.978;2023-05-21T01:40:32;98750.56;;;8.16;97.71
77877;BME280;67251;50.844;7.978;2023-05-21T01:43:00;98755.13;;;8.22;97.75
77877;BME280;67251;50.844;7.978;2023-05-21T01:45:30;98758.25;;;8.26;97.73
77877;BME280;67251;50.844;7.978;2023-05-21T01:53:38;98754.47;;;8.35;97.56
77877;BME280;67251;50.844;7.978;2023-05-21T01:56:05;98755.28;;;8.35;97.40
77877;BME280;67251;50.844;7.978;2023-05-21T01:58:30;98761.84;;;8.33;97.61
77877;BME280;67251;50.844;7.978;2023-05-21T02:00:56;98759.19;;;8.33;97.43
77877;BME280;67251;50.844;7.978;2023-05-21T02:03:24;98762.22;;;8.30;97.58
77877;BME280;67251;50.844;7.978;2023-05-21T02:05:50;98760.56;;;8.29;97.61
77877;BME280;67251;50.844;7.978;2023-05-21T02:08:16;98757.91;;;8.29;97.54
77877;BME280;67251;50.844;7.978;2023-05-21T02:10:43;98752.16;;;8.32;97.62
77877;BME280;67251;50.844;7.978;2023-05-21T02:13:09;98754.66;;;8.33;97.60
77877;BME280;67251;50.844;7.978;2023-05-21T02:15:35;98754.47;;;8.35;97.62
77877;BME280;67251;50.844;7.978;2023-05-21T02:18:00;98750.78;;;8.36;97.66
77877;BME280;67251;50.844;7.978;2023-05-21T02:20:26;98746.13;;;8.38;97.50
77877;BME280;67251;50.844;7.978;2023-05-21T02:22:51;98733.22;;;8.41;97.78
77877;BME280;67251;50.844;7.978;2023-05-21T02:25:17;98743.72;;;8.43;97.61
77877;BME280;67251;50.844;7.978;2023-05-21T02:27:44;98747.56;;;8.40;97.75
77877;BME280;67251;50.844;7.978;2023-05-21T02:30:13;98746.31;;;8.36;97.62
77877;BME280;67251;50.844;7.978;2023-05-21T02:32:39;98740.50;;;8.33;97.87
77877;BME280;67251;50.844;7.978;2023-05-21T02:35:07;98737.84;;;8.33;97.71
77877;BME280;67251;50.844;7.978;2023-05-21T02:37:33;98735.34;;;8.31;97.83
77877;BME280;67251;50.844;7.978;2023-05-21T02:40:00;98739.25;;;8.29;97.92
77877;BME280;67251;50.844;7.978;2023-05-21T02:42:26;98735.56;;;8.30;97.86
77877;BME280;67251;50.844;7.978;2023-05-21T02:44:52;98735.34;;;8.31;97.71
77877;BME280;67251;50.844;7.978;2023-05-21T02:47:18;98737.56;;;8.28;97.50
77877;BME280;67251;50.844;7.978;2023-05-21T02:49:44;98736.13;;;8.25;97.77
77877;BME280;67251;50.844;7.978;2023-05-21T02:52:10;98736.31;;;8.24;97.94
77877;BME280;67251;50.844;7.978;2023-05-21T02:54:35;98733.00;;;8.22;97.85
77877;BME280;67251;50.844;7.978;2023-05-21T02:57:01;98732.38;;;8.19;97.74
77877;BME280;67251;50.844;7.978;2023-05-21T02:59:26;98728.69;;;8.20;97.80
77877;BME280;67251;50.844;7.978;2023-05-21T03:01:51;98729.31;;;8.23;97.90
77877;BME280;67251;50.844;7.978;2023-05-21T03:04:17;98731.97;;;8.23;97.89
77877;BME280;67251;50.844;7.978;2023-05-21T03:06:46;98736.47;;;8.22;97.92
77877;BME280;67251;50.844;7.978;2023-05-21T03:09:11;98728.31;;;8.24;97.82
77877;BME280;67251;50.844;7.978;2023-05-21T03:11:37;98729.75;;;8.26;97.92
77877;BME280;67251;50.844;7.978;2023-05-21T03:14:02;98729.56;;;8.28;97.81
77877;BME280;67251;50.844;7.978;2023-05-21T03:16:27;98728.56;;;8.29;97.99
77877;BME280;67251;50.844;7.978;2023-05-21T03:18:53;98732.22;;;8.28;98.22
77877;BME280;67251;50.844;7.978;2023-05-21T03:21:19;98723.59;;;8.26;97.96
77877;BME280;67251;50.844;7.978;2023-05-21T03:23:47;98721.97;;;8.25;97.88
77877;BME280;67251;50.844;7.978;2023-05-21T03:26:13;98721.16;;;8.24;98.00
77877;BME280;67251;50.844;7.978;2023-05-21T03:28:38;98718.47;;;8.24;97.90
77877;BME280;67251;50.844;7.978;2023-05-21T03:31:03;98718.47;;;8.24;98.00
77877;BME280;67251;50.844;7.978;2023-05-21T03:33:29;98721.97;;;8.25;98.08
77877;BME280;67251;50.844;7.978;2023-05-21T03:35:54;98717.25;;;8.27;98.13
77877;BME280;67251;50.844;7.978;2023-05-21T03:38:20;98720.38;;;8.30;97.82
77877;BME280;67251;50.844;7.978;2023-05-21T03:40:45;98724.69;;;8.31;97.91
77877;BME280;67251;50.844;7.978;2023-05-21T03:43:10;98714.84;;;8.32;97.73
77877;BME280;67251;50.844;7.978;2023-05-21T03:45:36;98722.84;;;8.32;97.99
77877;BME280;67251;50.844;7.978;2023-05-21T03:48:01;98726.53;;;8.31;97.87
77877;BME280;67251;50.844;7.978;2023-05-21T03:50:27;98720.19;;;8.32;97.77
77877;BME280;67251;50.844;7.978;2023-05-21T03:52:52;98715.66;;;8.32;97.92
77877;BME280;67251;50.844;7.978;2023-05-21T03:55:17;98719.19;;;8.33;97.65
77877;BME280;67251;50.844;7.978;2023-05-21T03:57:43;98719.19;;;8.33;98.01
77877;BME280;67251;50.844;7.978;2023-05-21T04:00:08;98720.00;;;8.33;97.82
77877;BME280;67251;50.844;7.978;2023-05-21T04:02:34;98718.78;;;8.36;97.61
77877;BME280;67251;50.844;7.978;2023-05-21T04:04:59;98720.09;;;8.40;97.74
77877;BME280;67251;50.844;7.978;2023-05-21T04:07:25;98723.00;;;8.45;97.47
77877;BME280;67251;50.844;7.978;2023-05-21T04:09:51;98724.91;;;8.51;97.46
77877;BME280;67251;50.844;7.978;2023-05-21T04:12:16;98724.16;;;8.57;97.11
77877;BME280;67251;50.844;7.978;2023-05-21T04:14:44;98726.44;;;8.60;96.92
77877;BME280;67251;50.844;7.978;2023-05-21T04:17:10;98727.09;;;8.62;96.97
77877;BME280;67251;50.844;7.978;2023-05-21T04:19:36;98725.84;;;8.65;96.90
77877;BME280;67251;50.844;7.978;2023-05-21T04:22:03;98726.97;;;8.70;97.10
77877;BME280;67251;50.844;7.978;2023-05-21T04:24:28;98727.81;;;8.78;96.63
77877;BME280;67251;50.844;7.978;2023-05-21T04:26:54;98729.53;;;8.85;96.62
77877;BME280;67251;50.844;7.978;2023-05-21T04:29:20;98722.41;;;8.92;96.19
77877;BME280;67251;50.844;7.978;2023-05-21T04:31:48;98716.28;;;8.99;96.16
77877;BME280;67251;50.844;7.978;2023-05-21T04:34:14;98727.84;;;9.06;96.05
77877;BME280;67251;50.844;7.978;2023-05-21T04:36:46;98719.50;;;9.15;95.90
77877;BME280;67251;50.844;7.978;2023-05-21T04:39:12;98722.00;;;9.24;95.97
77877;BME280;67251;50.844;7.978;2023-05-21T04:41:38;98720.41;;;9.29;95.17
77877;BME280;67251;50.844;7.978;2023-05-21T04:44:07;98715.94;;;9.36;95.28
77877;BME280;67251;50.844;7.978;2023-05-21T04:46:33;98720.28;;;9.44;94.94
77877;BME280;67251;50.844;7.978;2023-05-21T04:49:01;98721.78;;;9.53;94.88
77877;BME280;67251;50.844;7.978;2023-05-21T04:51:30;98728.59;;;9.62;94.55
77877;BME280;67251;50.844;7.978;2023-05-21T04:53:56;98722.28;;;9.70;94.06
77877;BME280;67251;50.844;7.978;2023-05-21T04:56:25;98720.25;;;9.79;93.73
77877;BME280;67251;50.844;7.978;2023-05-21T04:58:51;98724.38;;;9.88;93.18
77877;BME280;67251;50.844;7.978;2023-05-21T05:01:17;98717.22;;;9.95;92.98
77877;BME280;67251;50.844;7.978;2023-05-21T05:03:44;98717.88;;;10.04;92.63
77877;BME280;67251;50.844;7.978;2023-05-21T05:06:09;98724.50;;;10.14;92.32
77877;BME280;67251;50.844;7.978;2023-05-21T05:08:35;98723.28;;;10.23;92.01
77877;BME280;67251;50.844;7.978;2023-05-21T05:11:00;98724.78;;;10.33;91.57
77877;BME280;67251;50.844;7.978;2023-05-21T05:13:26;98731.97;;;10.39;91.43
77877;BME280;67251;50.844;7.978;2023-05-21T05:15:51;98729.13;;;10.47;90.64
77877;BME280;67251;50.844;7.978;2023-05-21T05:18:18;98720.91;;;10.55;90.32
77877;BME280;67251;50.844;7.978;2023-05-21T05:20:43;98733.69;;;10.60;90.00
77877;BME280;67251;50.844;7.978;2023-05-21T05:23:09;98723.78;;;10.67;89.70
77877;BME280;67251;50.844;7.978;2023-05-21T05:25:34;98726.47;;;10.80;89.18
77877;BME280;67251;50.844;7.978;2023-05-21T05:27:59;98726.88;;;10.90;88.86
77877;BME280;67251;50.844;7.978;2023-05-21T05:30:25;98722.97;;;10.99;88.35
77877;BME280;67251;50.844;7.978;2023-05-21T05:32:50;98713.91;;;11.07;87.98
77877;BME280;67251;50.844;7.978;2023-05-21T05:35:16;98722.38;;;11.11;87.58
77877;BME280;67251;50.844;7.978;2023-05-21T05:37:41;98715.97;;;11.25;87.13
77877;BME280;67251;50.844;7.978;2023-05-21T05:40:07;98719.00;;;11.42;86.42
77877;BME280;67251;50.844;7.978;2023-05-21T05:42:33;98721.84;;;11.60;85.88
77877;BME280;67251;50.844;7.978;2023-05-21T05:44:58;98724.91;;;11.70;85.30
77877;BME280;67251;50.844;7.978;2023-05-21T05:47:23;98720.75;;;11.88;84.81
77877;BME280;67251;50.844;7.978;2023-05-21T05:49:49;98712.84;;;12.06;83.80
77877;BME280;67251;50.844;7.978;2023-05-21T05:52:14;98713.72;;;12.32;83.04
77877;BME280;67251;50.844;7.978;2023-05-21T05:54:40;98724.28;;;12.58;82.02
77877;BME280;67251;50.844;7.978;2023-05-21T05:57:05;98722.28;;;12.78;80.71
77877;BME280;67251;50.844;7.978;2023-05-21T05:59:31;98719.81;;;13.02;80.15
77877;BME280;67251;50.844;7.978;2023-05-21T06:01:58;98724.75;;;13.30;79.31
77877;BME280;67251;50.844;7.978;2023-05-21T06:04:23;98710.97;;;13.45;78.61
77877;BME280;67251;50.844;7.978;2023-05-21T06:06:49;98715.63;;;13.56;78.46
77877;BME280;67251;50.844;7.978;2023-05-21T06:09:15;98713.59;;;13.70;77.77
77877;BME280;67251;50.844;7.978;2023-05-21T06:11:40;98721.72;;;13.81;77.04
77877;BME280;67251;50.844;7.978;2023-05-21T06:14:05;98719.41;;;13.85;77.05
77877;BME280;67251;50.844;7.978;2023-05-21T06:16:31;98707.97;;;13.90;77.03
77877;BME280;67251;50.844;7.978;2023-05-21T06:18:56;98711.72;;;13.89;77.31
77877;BME280;67251;50.844;7.978;2023-05-21T06:21:22;98707.06;;;13.96;77.15
77877;BME280;67251;50.844;7.978;2023-05-21T06:23:47;98710.97;;;14.00;76.81
77877;BME280;67251;50.844;7.978;2023-05-21T06:26:12;98720.22;;;14.04;76.18
77877;BME280;67251;50.844;7.978;2023-05-21T06:28:38;98712.56;;;14.19;75.97
77877;BME280;67251;50.844;7.978;2023-05-21T06:31:03;98717.22;;;14.42;75.43
77877;BME280;67251;50.844;7.978;2023-05-21T06:33:29;98713.00;;;14.65;74.94
77877;BME280;67251;50.844;7.978;2023-05-21T06:35:54;98711.97;;;14.77;74.16
77877;BME280;67251;50.844;7.978;2023-05-21T06:38:20;98703.66;;;14.79;74.29
77877;BME280;67251;50.844;7.978;2023-05-21T06:40:45;98702.63;;;14.92;73.31
77877;BME280;67251;50.844;7.978;2023-05-21T06:43:12;98708.47;;;15.00;72.77
77877;BME280;67251;50.844;7.978;2023-05-21T06:45:38;98704.97;;;15.23;71.61
77877;BME280;67251;50.844;7.978;2023-05-21T06:48:04;98702.97;;;15.54;70.84
77877;BME280;67251;50.844;7.978;2023-05-21T06:50:29;98700.72;;;15.74;70.42
77877;BME280;67251;50.844;7.978;2023-05-21T06:52:54;98708.34;;;15.77;69.38
77877;BME280;67251;50.844;7.978;2023-05-21T06:55:20;98716.06;;;15.86;69.60
77877;BME280;67251;50.844;7.978;2023-05-21T06:57:46;98721.38;;;16.09;69.13
77877;BME280;67251;50.844;7.978;2023-05-21T07:00:11;98701.66;;;16.37;68.26
77877;BME280;67251;50.844;7.978;2023-05-21T07:02:37;98711.53;;;16.60;67.56
77877;BME280;67251;50.844;7.978;2023-05-21T07:05:02;98717.97;;;16.88;67.06
77877;BME280;67251;50.844;7.978;2023-05-21T07:07:28;98707.66;;;17.01;66.17
77877;BME280;67251;50.844;7.978;2023-05-21T07:09:53;98707.28;;;17.48;65.43
77877;BME280;67251;50.844;7.978;2023-05-21T07:12:19;98701.31;;;17.85;63.73
77877;BME280;67251;50.844;7.978;2023-05-21T07:14:46;98700.06;;;18.20;63.17
77877;BME280;67251;50.844;7.978;2023-05-21T07:17:12;98700.13;;;18.52;62.26
77877;BME280;67251;50.844;7.978;2023-05-21T07:19:37;98696.88;;;18.77;61.26
77877;BME280;67251;50.844;7.978;2023-05-21T07:22:04;98692.13;;;18.94;60.92
77877;BME280;67251;50.844;7.978;2023-05-21T07:24:29;98692.75;;;19.01;60.42
77877;BME280;67251;50.844;7.978;2023-05-21T07:26:55;98695.94;;;19.30;60.41
77877;BME280;67251;50.844;7.978;2023-05-21T07:29:20;98697.41;;;19.48;59.70
77877;BME280;67251;50.844;7.978;2023-05-21T07:31:46;98692.41;;;19.72;59.15
77877;BME280;67251;50.844;7.978;2023-05-21T07:34:12;98698.03;;;20.23;57.19
77877;BME280;67251;50.844;7.978;2023-05-21T07:36:37;98691.25;;;20.46;56.09
77877;BME280;67251;50.844;7.978;2023-05-21T07:39:02;98688.00;;;20.34;55.20
77877;BME280;67251;50.844;7.978;2023-05-21T07:41:29;98691.19;;;20.15;55.40
77877;BME280;67251;50.844;7.978;2023-05-21T07:43:54;98685.47;;;20.07;55.77
77877;BME280;67251;50.844;7.978;2023-05-21T07:46:19;98691.72;;;20.07;55.82
77877;BME280;67251;50.844;7.978;2023-05-21T07:48:45;98691.72;;;20.17;56.20
77877;BME280;67251;50.844;7.978;2023-05-21T07:51:11;98692.84;;;20.22;55.94
77877;BME280;67251;50.844;7.978;2023-05-21T07:53:36;98686.41;;;20.48;55.83
77877;BME280;67251;50.844;7.978;2023-05-21T07:56:02;98685.59;;;20.53;55.50
77877;BME280;67251;50.844;7.978;2023-05-21T07:58:27;98687.25;;;20.64;55.17
77877;BME280;67251;50.844;7.978;2023-05-21T08:00:53;98678.81;;;20.86;54.97
77877;BME280;67251;50.844;7.978;2023-05-21T08:03:18;98680.16;;;21.19;54.13
77877;BME280;67251;50.844;7.978;2023-05-21T08:05:45;98678.19;;;21.65;53.46
77877;BME280;67251;50.844;7.978;2023-05-21T08:08:18;98675.28;;;22.16;51.52
77877;BME280;67251;50.844;7.978;2023-05-21T08:10:44;98674.50;;;22.89;49.69
77877;BME280;67251;50.844;7.978;2023-05-21T08:13:11;98662.22;;;23.21;49.30
77877;BME280;67251;50.844;7.978;2023-05-21T08:15:36;98674.50;;;23.18;49.16
77877;BME280;67251;50.844;7.978;2023-05-21T08:18:02;98674.19;;;23.25;48.71
77877;BME280;67251;50.844;7.978;2023-05-21T08:20:28;98673.16;;;23.93;47.07
77877;BME280;67251;50.844;7.978;2023-05-21T08:22:55;98675.88;;;24.36;45.79
77877;BME280;67251;50.844;7.978;2023-05-21T08:25:20;98666.00;;;24.91;43.80
77877;BME280;67251;50.844;7.978;2023-05-21T08:27:46;98674.16;;;25.57;43.01
77877;BME280;67251;50.844;7.978;2023-05-21T08:30:11;98666.59;;;26.90;41.01
77877;BME280;67251;50.844;7.978;2023-05-21T08:32:37;98662.75;;;27.44;38.62
77877;BME280;67251;50.844;7.978;2023-05-21T08:35:02;98653.00;;;28.52;37.59
77877;BME280;67251;50.844;7.978;2023-05-21T08:37:28;98655.88;;;28.82;36.53
77877;BME280;67251;50.844;7.978;2023-05-21T08:39:53;98654.88;;;28.17;36.89
77877;BME280;67251;50.844;7.978;2023-05-21T08:42:43;98651.69;;;28.41;36.36
77877;BME280;67251;50.844;7.978;2023-05-21T08:45:14;98655.13;;;27.72;37.59
77877;BME280;67251;50.844;7.978;2023-05-21T08:47:42;98652.78;;;29.18;36.25
77877;BME280;67251;50.844;7.978;2023-05-21T08:50:10;98633.00;;;30.97;33.04
77877;BME280;67251;50.844;7.978;2023-05-21T08:52:36;98637.81;;;31.34;30.71
77877;BME280;67251;50.844;7.978;2023-05-21T08:55:05;98634.59;;;31.56;30.77
77877;BME280;67251;50.844;7.978;2023-05-21T08:57:31;98636.09;;;31.29;32.54
77877;BME280;67251;50.844;7.978;2023-05-21T08:59:58;98636.22;;;30.99;33.57
77877;BME280;67251;50.844;7.978;2023-05-21T09:02:23;98635.03;;;30.67;33.17
77877;BME280;67251;50.844;7.978;2023-05-21T09:04:52;98637.63;;;30.01;33.13
77877;BME280;67251;50.844;7.978;2023-05-21T09:07:28;98637.88;;;29.49;34.94
77877;BME280;67251;50.844;7.978;2023-05-21T09:10:02;98636.91;;;29.07;36.05
77877;BME280;67251;50.844;7.978;2023-05-21T09:12:30;98637.44;;;28.65;36.69
77877;BME280;67251;50.844;7.978;2023-05-21T09:14:56;98640.50;;;28.29;36.81
77877;BME280;67251;50.844;7.978;2023-05-21T09:17:23;98645.47;;;27.92;37.86
77877;BME280;67251;50.844;7.978;2023-05-21T09:22:44;98640.63;;;27.49;40.23
77877;BME280;67251;50.844;7.978;2023-05-21T09:25:11;98643.06;;;27.60;39.43
77877;BME280;67251;50.844;7.978;2023-05-21T09:27:38;98645.00;;;27.90;38.40
77877;BME280;67251;50.844;7.978;2023-05-21T09:30:08;98638.72;;;28.16;37.96
77877;BME280;67251;50.844;7.978;2023-05-21T09:32:33;98649.16;;;27.88;37.44
77877;BME280;67251;50.844;7.978;2023-05-21T09:37:36;98643.03;;;27.91;39.18
77877;BME280;67251;50.844;7.978;2023-05-21T09:40:09;98644.84;;;27.95;37.83
77877;BME280;67251;50.844;7.978;2023-05-21T09:42:34;98636.28;;;28.14;37.64
77877;BME280;67251;50.844;7.978;2023-05-21T09:45:00;98646.97;;;28.16;38.96
77877;BME280;67251;50.844;7.978;2023-05-21T09:47:25;98639.41;;;28.39;37.60
77877;BME280;67251;50.844;7.978;2023-05-21T09:49:50;98637.63;;;28.43;37.25
77877;BME280;67251;50.844;7.978;2023-05-21T09:52:23;98637.28;;;28.44;37.78
77877;BME280;67251;50.844;7.978;2023-05-21T09:54:50;98632.69;;;28.92;37.57
77877;BME280;67251;50.844;7.978;2023-05-21T09:57:15;98624.25;;;29.52;36.18
77877;BME280;67251;50.844;7.978;2023-05-21T09:59:41;98625.00;;;30.00;35.48
77877;BME280;67251;50.844;7.978;2023-05-21T10:02:20;98613.66;;;29.72;34.23
77877;BME280;67251;50.844;7.978;2023-05-21T10:04:47;98615.47;;;29.21;35.61
77877;BME280;67251;50.844;7.978;2023-05-21T10:07:21;98610.28;;;29.19;35.66
77877;BME280;67251;50.844;7.978;2023-05-21T10:09:53;98613.03;;;29.28;36.58
77877;BME280;67251;50.844;7.978;2023-05-21T10:12:21;98605.50;;;28.90;34.77
77877;BME280;67251;50.844;7.978;2023-05-21T10:14:53;98602.38;;;29.18;35.03
77877;BME280;67251;50.844;7.978;2023-05-21T10:17:19;98602.06;;;29.11;34.97
77877;BME280;67251;50.844;7.978;2023-05-21T10:19:46;98591.75;;;28.73;33.87
77877;BME280;67251;50.844;7.978;2023-05-21T10:22:13;98594.69;;;28.59;34.44
77877;BME280;67251;50.844;7.978;2023-05-21T10:24:39;98589.69;;;28.35;34.39
77877;BME280;67251;50.844;7.978;2023-05-21T10:27:06;98591.13;;;28.41;34.55
77877;BME280;67251;50.844;7.978;2023-05-21T10:29:32;98591.13;;;28.41;36.61
77877;BME280;67251;50.844;7.978;2023-05-21T10:32:02;98585.25;;;28.95;33.82
77877;BME280;67251;50.844;7.978;2023-05-21T10:34:30;98583.00;;;28.80;32.56
77877;BME280;67251;50.844;7.978;2023-05-21T10:36:56;98586.19;;;29.08;35.03
77877;BME280;67251;50.844;7.978;2023-05-21T10:39:24;98571.97;;;28.97;32.82
77877;BME280;67251;50.844;7.978;2023-05-21T10:56:15;98568.28;;;28.32;37.76
77877;BME280;67251;50.844;7.978;2023-05-21T11:01:31;98568.53;;;29.09;37.46
77877;BME280;67251;50.844;7.978;2023-05-21T11:04:01;98566.25;;;28.93;37.61
77877;BME280;67251;50.844;7.978;2023-05-21T11:06:29;98567.75;;;28.91;37.39
77877;BME280;67251;50.844;7.978;2023-05-21T11:11:51;98563.16;;;29.50;38.07
77877;BME280;67251;50.844;7.978;2023-05-21T11:14:56;98557.28;;;29.61;37.99
77877;BME280;67251;50.844;7.978;2023-05-21T11:17:36;98536.78;;;30.33;36.55
77877;BME280;67251;50.844;7.978;2023-05-21T11:20:03;98542.28;;;30.66;35.97
77877;BME280;67251;50.844;7.978;2023-05-21T11:22:34;98546.28;;;30.90;34.27
77877;BME280;67251;50.844;7.978;2023-05-21T11:25:01;98537.06;;;30.19;32.61
77877;BME280;67251;50.844;7.978;2023-05-21T11:27:35;98539.06;;;30.31;31.98
77877;BME280;67251;50.844;7.978;2023-05-21T11:32:38;98546.00;;;29.74;32.20
77877;BME280;67251;50.844;7.978;2023-05-21T11:35:04;98539.00;;;30.19;31.81
77877;BME280;67251;50.844;7.978;2023-05-21T11:37:30;98536.22;;;29.47;30.45
77877;BME280;67251;50.844;7.978;2023-05-21T11:40:15;98525.28;;;29.89;30.35
77877;BME280;67251;50.844;7.978;2023-05-21T11:42:41;98525.22;;;29.47;30.38
77877;BME280;67251;50.844;7.978;2023-05-21T11:45:08;98521.09;;;30.04;31.85
77877;BME280;67251;50.844;7.978;2023-05-21T11:47:34;98532.72;;;30.10;28.90
77877;BME280;67251;50.844;7.978;2023-05-21T11:50:02;98519.41;;;29.70;28.36
77877;BME280;67251;50.844;7.978;2023-05-21T11:52:29;98526.53;;;29.12;28.44
77877;BME280;67251;50.844;7.978;2023-05-21T11:54:55;98529.19;;;28.99;28.60
77877;BME280;67251;50.844;7.978;2023-05-21T11:57:24;98523.34;;;29.31;27.52
77877;BME280;67251;50.844;7.978;2023-05-21T11:59:51;98521.13;;;29.24;26.33
77877;BME280;67251;50.844;7.978;2023-05-21T12:02:20;98517.84;;;29.31;26.06
77877;BME280;67251;50.844;7.978;2023-05-21T12:04:48;98515.72;;;28.25;28.01
77877;BME280;67251;50.844;7.978;2023-05-21T12:07:17;98532.94;;;27.39;27.35
77877;BME280;67251;50.844;7.978;2023-05-21T12:09:50;98521.09;;;27.38;27.20
77877;BME280;67251;50.844;7.978;2023-05-21T12:12:20;98526.41;;;28.00;27.61
77877;BME280;67251;50.844;7.978;2023-05-21T12:14:48;98528.84;;;27.76;27.41
77877;BME280;67251;50.844;7.978;2023-05-21T12:17:16;98520.75;;;28.06;27.57
77877;BME280;67251;50.844;7.978;2023-05-21T12:19:41;98521.72;;;28.01;28.33
77877;BME280;67251;50.844;7.978;2023-05-21T12:22:07;98518.97;;;28.01;28.24
77877;BME280;67251;50.844;7.978;2023-05-21T12:24:34;98516.03;;;27.97;28.68
77877;BME280;67251;50.844;7.978;2023-05-21T12:27:02;98508.78;;;27.93;29.71
77877;BME280;67251;50.844;7.978;2023-05-21T12:29:35;98507.28;;;28.47;28.33
77877;BME280;67251;50.844;7.978;2023-05-21T12:32:01;98505.84;;;28.24;26.89
77877;BME280;67251;50.844;7.978;2023-05-21T12:34:56;98517.81;;;27.85;27.25
77877;BME280;67251;50.844;7.978;2023-05-21T12:37:28;98510.34;;;27.59;27.47
77877;BME280;67251;50.844;7.978;2023-05-21T12:40:02;98518.50;;;27.33;28.01
77877;BME280;67251;50.844;7.978;2023-05-21T12:42:36;98520.94;;;27.26;28.54
77877;BME280;67251;50.844;7.978;2023-05-21T12:45:06;98517.38;;;27.25;29.00
77877;BME280;67251;50.844;7.978;2023-05-21T12:47:32;98519.16;;;27.30;27.86
77877;BME280;67251;50.844;7.978;2023-05-21T12:49:59;98504.09;;;27.19;28.50
77877;BME280;67251;50.844;7.978;2023-05-21T12:52:25;98516.25;;;27.26;28.29
77877;BME280;67251;50.844;7.978;2023-05-21T12:54:53;98521.75;;;26.87;28.02
77877;BME280;67251;50.844;7.978;2023-05-21T12:57:22;98520.47;;;26.93;27.34
77877;BME280;67251;50.844;7.978;2023-05-21T12:59:48;98517.03;;;27.18;28.12
77877;BME280;67251;50.844;7.978;2023-05-21T13:02:25;98508.28;;;27.91;28.36
77877;BME280;67251;50.844;7.978;2023-05-21T13:05:06;98522.13;;;27.60;27.79
77877;BME280;67251;50.844;7.978;2023-05-21T13:07:34;98512.00;;;27.77;26.72
77877;BME280;67251;50.844;7.978;2023-05-21T13:10:00;98511.81;;;28.26;27.33
77877;BME280;67251;50.844;7.978;2023-05-21T13:12:28;98510.88;;;28.39;27.62
77877;BME280;67251;50.844;7.978;2023-05-21T13:14:55;98517.91;;;28.75;27.34
77877;BME280;67251;50.844;7.978;2023-05-21T13:17:22;98510.03;;;28.04;28.65
77877;BME280;67251;50.844;7.978;2023-05-21T13:22:38;98511.13;;;27.60;29.26
77877;BME280;67251;50.844;7.978;2023-05-21T13:25:07;98511.75;;;27.39;28.96
77877;BME280;67251;50.844;7.978;2023-05-21T13:27:32;98501.50;;;27.88;28.94
77877;BME280;67251;50.844;7.978;2023-05-21T13:29:58;98506.84;;;27.19;30.58
77877;BME280;67251;50.844;7.978;2023-05-21T13:32:23;98507.94;;;27.75;29.64
77877;BME280;67251;50.844;7.978;2023-05-21T13:34:49;98514.41;;;27.13;31.61
77877;BME280;67251;50.844;7.978;2023-05-21T13:37:14;98511.19;;;27.77;30.21
77877;BME280;67251;50.844;7.978;2023-05-21T13:39:40;98502.28;;;28.06;29.61
77877;BME280;67251;50.844;7.978;2023-05-21T13:42:05;98509.28;;;27.20;30.15
77877;BME280;67251;50.844;7.978;2023-05-21T13:44:31;98503.31;;;27.27;31.11
77877;BME280;67251;50.844;7.978;2023-05-21T13:47:04;98523.81;;;27.95;30.71